Time;durP1;ratioP1;P1;durP2;ratioP2;P2;SDS_P1;SDS_P2;PMS_P1;PMS_P2;Temp;Humidity;BMP_temperature;BMP_pressure;BME280_temperature;BME280_humidity;BME280_pressure;Samples;Min_cycle;Max_cycle;Signal;HPM_P1;HPM_P2
2023/04/08 00:01:24;;;;;;;21.95;15.88;;;;;;;6.78;100.00;102041.63;6241091;23;20585;-86
2023/04/08 00:03:50;;;;;;;29.35;16.98;;;;;;;6.80;100.00;102045.97;6242600;23;20004;-86
2023/04/08 00:06:15;;;;;;;29.48;17.73;;;;;;;6.72;100.00;102032.00;6243039;23;19997;-85
2023/04/08 00:08:40;;;;;;;31.05;18.27;;;;;;;6.80;100.00;102042.47;6249569;23;20003;-88
2023/04/08 00:11:06;;;;;;;28.20;18.60;;;;;;;6.80;100.00;102048.63;6250476;23;20069;-86
2023/04/08 00:13:31;;;;;;;27.02;18.25;;;;;;;6.80;100.00;102045.09;6249409;23;20004;-87
2023/04/08 00:15:56;;;;;;;34.45;18.73;;;;;;;6.79;100.00;102046.00;6244265;23;20142;-86
2023/04/08 00:18:22;;;;;;;26.55;19.30;;;;;;;6.76;100.00;102036.34;6242473;23;20016;-86
2023/04/08 00:20:47;;;;;;;32.92;19.42;;;;;;;6.84;100.00;102044.16;6245737;23;20027;-86
2023/04/08 00:23:12;;;;;;;31.55;19.40;;;;;;;6.83;100.00;102037.13;6219646;23;20003;-86
2023/04/08 00:25:38;;;;;;;32.22;19.38;;;;;;;6.83;100.00;102037.13;6242611;23;20063;-85
2023/04/08 00:28:03;;;;;;;32.85;19.98;;;;;;;6.85;100.00;102046.75;6239804;23;20491;-84
2023/04/08 00:30:29;;;;;;;39.33;20.50;;;;;;;6.89;100.00;102043.19;6239614;23;20446;-86
2023/04/08 00:32:54;;;;;;;37.40;21.95;;;;;;;6.85;100.00;102036.19;6238095;23;20004;-85
2023/04/08 00:35:19;;;;;;;38.40;22.77;;;;;;;6.85;100.00;102030.88;6237206;23;20066;-87
2023/04/08 00:37:44;;;;;;;39.42;24.08;;;;;;;6.89;100.00;102052.88;6235383;23;20011;-83
2023/04/08 00:40:10;;;;;;;41.42;23.08;;;;;;;6.90;100.00;102042.31;6239206;23;20015;-85
2023/04/08 00:42:35;;;;;;;40.20;24.42;;;;;;;6.89;100.00;102052.88;6238742;23;20023;-85
2023/04/08 00:45:01;;;;;;;42.05;24.50;;;;;;;6.88;100.00;102056.44;6238628;23;20035;-85
2023/04/08 00:47:26;;;;;;;39.78;23.40;;;;;;;6.86;100.00;102051.19;6238302;22;20031;-86
2023/04/08 00:49:51;;;;;;;44.42;25.25;;;;;;;6.86;100.00;102042.38;6236034;23;20409;-85
2023/04/08 00:52:17;;;;;;;47.05;27.27;;;;;;;6.89;100.00;102053.75;6237094;23;20663;-84
2023/04/08 00:54:42;;;;;;;55.20;28.25;;;;;;;6.86;100.00;102051.19;6236768;23;20515;-86
2023/04/08 00:57:08;;;;;;;42.03;25.80;;;;;;;6.90;100.00;102050.25;6236226;23;20008;-86
2023/04/08 00:59:35;;;;;;;40.17;26.23;;;;;;;6.90;100.00;102052.88;6235833;23;20039;-87
2023/04/08 01:02:24;;;;;;;49.53;28.55;;;;;;;6.90;100.00;102058.19;6236732;23;20007;-86
2023/04/08 01:05:10;;;;;;;49.72;27.60;;;;;;;6.92;100.00;102058.16;6236868;23;20028;-86
2023/04/08 01:07:43;;;;;;;42.97;26.38;;;;;;;6.86;100.00;102053.84;6237025;23;20074;-86
2023/04/08 01:10:18;;;;;;;46.75;27.27;;;;;;;6.87;100.00;102055.56;6239947;23;20004;-86
2023/04/08 01:12:50;;;;;;;50.10;29.42;;;;;;;6.84;100.00;102058.25;6241524;23;20007;-85
2023/04/08 01:15:16;;;;;;;46.25;29.13;;;;;;;6.83;100.00;102056.53;6209828;23;20012;-87
2023/04/08 01:17:43;;;;;;;50.38;29.98;;;;;;;6.79;100.00;102061.88;6235572;23;20054;-88
2023/04/08 01:20:10;;;;;;;52.97;30.75;;;;;;;6.79;100.00;102061.88;6237399;23;20094;-86
2023/04/08 01:22:59;;;;;;;51.15;30.25;;;;;;;6.80;100.00;102060.97;6238912;23;20008;-87
2023/04/08 01:25:36;;;;;;;53.80;31.10;;;;;;;6.77;100.00;102059.25;6238297;23;20000;-86
2023/04/08 01:28:12;;;;;;;60.45;32.33;;;;;;;6.75;100.00;102063.69;6237767;23;19996;-87
2023/04/08 01:30:39;;;;;;;55.78;32.90;;;;;;;6.67;100.00;102055.88;6237365;23;20375;-86
2023/04/08 01:33:06;;;;;;;56.53;32.97;;;;;;;6.69;100.00;102062.03;6237004;23;20000;-86
2023/04/08 01:35:32;;;;;;;57.67;33.00;;;;;;;6.69;100.00;102058.53;6237162;23;20039;-86
2023/04/08 01:38:00;;;;;;;53.58;31.65;;;;;;;6.65;100.00;102064.75;6236796;23;20008;-86
2023/04/08 01:40:26;;;;;;;56.05;31.13;;;;;;;6.65;100.00;102070.03;6207423;23;20008;-85
2023/04/08 01:42:54;;;;;;;52.30;29.92;;;;;;;6.62;100.00;102062.16;6236837;23;20510;-87
2023/04/08 01:45:22;;;;;;;56.30;31.95;;;;;;;6.58;100.00;102061.31;6237409;23;20038;-85
2023/04/08 01:47:48;;;;;;;63.60;33.63;;;;;;;6.56;100.00;102063.09;6193756;22;1060296;-86
2023/04/08 01:50:15;;;;;;;58.13;33.05;;;;;;;6.58;100.00;102068.38;6247935;23;20058;-87
2023/04/08 01:52:42;;;;;;;54.08;33.50;;;;;;;6.58;100.00;102069.25;6266505;22;19992;-87
2023/04/08 01:55:08;;;;;;;57.42;33.95;;;;;;;6.59;100.00;102075.41;6240284;23;20011;-86
2023/04/08 01:57:36;;;;;;;57.90;34.38;;;;;;;6.47;100.00;102057.94;6263601;22;20008;-85
2023/04/08 02:00:06;;;;;;;66.75;35.55;;;;;;;6.55;100.00;102073.72;6249849;23;20000;-87
2023/04/08 02:02:35;;;;;;;63.17;34.95;;;;;;;6.54;100.00;102071.97;6249351;23;20496;-87
2023/04/08 02:05:00;;;;;;;59.20;33.35;;;;;;;6.49;100.00;102056.16;6249732;23;20004;-86
2023/04/08 02:07:25;;;;;;;63.65;35.10;;;;;;;6.50;100.00;102065.84;6248623;23;20083;-85
2023/04/08 02:09:51;;;;;;;60.50;33.80;;;;;;;6.49;100.00;102067.63;6245794;23;20004;-87
2023/04/08 02:12:16;;;;;;;71.20;36.95;;;;;;;6.46;100.00;102067.66;6243699;23;20047;-86
2023/04/08 02:14:42;;;;;;;69.07;37.63;;;;;;;6.51;100.00;102066.72;6242946;23;20008;-85
2023/04/08 02:17:16;;;;;;;65.57;37.95;;;;;;;6.46;100.00;102078.22;6242655;23;20005;-86
2023/04/08 02:20:07;;;;;;;;;;;;;;;6.47;100.00;102072.03;6240938;23;20088;-87
2023/04/08 02:22:41;;;;;;;61.33;36.88;;;;;;;6.44;100.00;102074.75;6235229;23;19903;-85
2023/04/08 02:25:10;;;;;;;66.30;36.47;;;;;;;6.50;100.00;102076.41;6241268;23;20031;-87
2023/04/08 02:27:38;;;;;;;61.30;36.45;;;;;;;6.49;100.00;102072.91;6257263;23;20410;-87
2023/04/08 02:30:05;;;;;;;65.30;37.30;;;;;;;6.44;100.00;102069.47;6258156;23;20067;-86
2023/04/08 02:32:32;;;;;;;60.67;36.65;;;;;;;6.49;100.00;102074.69;6253930;23;20067;-88
2023/04/08 02:35:00;;;;;;;69.63;37.17;;;;;;;6.48;100.00;102072.94;6239043;23;20004;-88
2023/04/08 02:37:27;;;;;;;62.13;36.13;;;;;;;6.51;100.00;102077.28;6237783;23;20084;-87
2023/04/08 02:39:53;;;;;;;59.63;35.30;;;;;;;6.49;100.00;102075.56;6210662;23;20082;-87
2023/04/08 02:42:18;;;;;;;64.60;37.05;;;;;;;6.50;100.00;102081.72;6239619;23;20426;-87
2023/04/08 02:44:43;;;;;;;64.25;36.00;;;;;;;6.48;100.00;102078.22;6239045;23;20379;-87
2023/04/08 02:47:09;;;;;;;67.07;37.70;;;;;;;6.48;100.00;102087.03;6212163;22;20528;-87
2023/04/08 02:49:34;;;;;;;65.03;36.47;;;;;;;6.49;100.00;102085.25;6242259;23;20008;-86
2023/04/08 02:51:59;;;;;;;64.25;36.67;;;;;;;6.51;100.00;102082.59;6252845;23;20071;-86
2023/04/08 02:54:25;;;;;;;64.53;37.53;;;;;;;6.52;100.00;102089.63;6251439;23;20011;-87
2023/04/08 02:56:50;;;;;;;60.45;35.75;;;;;;;6.51;100.00;102090.50;6251630;23;20068;-86
2023/04/08 02:59:15;;;;;;;65.82;36.35;;;;;;;6.45;100.00;102079.13;6243335;23;20322;-86
2023/04/08 03:01:41;;;;;;;60.80;37.60;;;;;;;6.48;100.00;102084.38;6237299;23;20015;-87
2023/04/08 03:04:07;;;;;;;66.43;38.60;;;;;;;6.45;100.00;102080.91;6232459;23;20008;-88
2023/04/08 03:06:32;;;;;;;62.60;38.58;;;;;;;6.51;100.00;102088.75;6232718;23;20011;-87
2023/04/08 03:08:57;;;;;;;62.65;36.67;;;;;;;6.51;100.00;102095.81;6230137;23;20016;-87
2023/04/08 03:11:23;;;;;;;63.13;38.35;;;;;;;6.48;100.00;102091.47;6234238;23;20698;-87
2023/04/08 03:13:48;;;;;;;59.25;37.60;;;;;;;6.47;100.00;102087.91;6232614;23;20008;-86
2023/04/08 03:16:13;;;;;;;65.85;38.08;;;;;;;6.47;100.00;102090.56;6233682;23;20331;-87
2023/04/08 03:18:39;;;;;;;68.28;37.83;;;;;;;6.44;100.00;102085.31;6230732;23;20008;-87
2023/04/08 03:21:04;;;;;;;64.32;37.78;;;;;;;6.49;100.00;102095.84;6230743;23;20445;-86
2023/04/08 03:23:30;;;;;;;67.30;37.90;;;;;;;6.50;100.00;102092.28;6229032;23;20454;-85
2023/04/08 03:25:55;;;;;;;62.05;36.83;;;;;;;6.46;100.00;102086.16;6229861;23;20079;-87
2023/04/08 03:28:20;;;;;;;63.88;36.85;;;;;;;6.47;100.00;102098.47;6230775;23;20008;-87
2023/04/08 03:30:46;;;;;;;60.55;38.22;;;;;;;6.38;100.00;102082.75;6202861;23;20004;-87
2023/04/08 03:33:11;;;;;;;69.43;39.42;;;;;;;6.43;100.00;102091.50;6237218;23;20380;-86
2023/04/08 03:35:37;;;;;;;65.15;39.50;;;;;;;6.42;100.00;102087.09;6237130;23;20012;-88
2023/04/08 03:38:03;;;;;;;65.13;38.55;;;;;;;6.42;100.00;102092.38;6236454;23;20008;-86
2023/04/08 03:40:28;;;;;;;68.13;39.35;;;;;;;6.45;100.00;102089.72;6235783;23;20008;-88
2023/04/08 03:42:53;;;;;;;70.82;40.15;;;;;;;6.46;100.00;102096.75;6236066;23;20105;-86
2023/04/08 03:45:19;;;;;;;66.43;39.67;;;;;;;6.45;100.00;102097.66;6236893;23;20004;-87
2023/04/08 03:47:44;;;;;;;68.57;39.17;;;;;;;6.47;100.00;102098.47;6235149;22;20638;-86
2023/04/08 03:50:10;;;;;;;62.60;40.08;;;;;;;6.45;100.00;102095.00;6236326;23;20023;-86
2023/04/08 03:52:35;;;;;;;67.13;40.00;;;;;;;6.41;100.00;102088.00;6236911;23;20095;-88
2023/04/08 03:55:00;;;;;;;73.22;42.03;;;;;;;6.44;100.00;102102.97;6236662;23;20054;-86
2023/04/08 03:57:26;;;;;;;69.93;39.95;;;;;;;6.39;100.00;102089.78;6236559;23;20122;-87
2023/04/08 03:59:51;;;;;;;71.72;40.42;;;;;;;6.48;100.00;102100.25;6235586;23;20012;-87
2023/04/08 04:02:17;;;;;;;76.22;42.53;;;;;;;6.48;100.00;102097.63;6237095;23;20702;-87
2023/04/08 04:04:42;;;;;;;70.35;41.35;;;;;;;6.42;100.00;102088.88;6236882;23;20057;-88
2023/04/08 04:07:07;;;;;;;70.38;40.95;;;;;;;6.45;100.00;102092.34;6236950;23;20004;-88
2023/04/08 04:09:34;;;;;;;76.35;42.40;;;;;;;6.44;100.00;102085.31;6240739;23;20067;-87
2023/04/08 04:11:59;;;;;;;78.65;43.17;;;;;;;6.49;100.00;102095.84;6238803;22;19993;-88
2023/04/08 04:14:24;;;;;;;80.47;44.30;;;;;;;6.44;100.00;102087.09;6267085;22;20196;-87
2023/04/08 04:16:49;;;;;;;78.65;43.33;;;;;;;6.49;100.00;102095.84;6266844;22;20007;-87
2023/04/08 04:19:16;;;;;;;83.18;44.15;;;;;;;6.51;100.00;102096.69;6267148;22;19996;-87
2023/04/08 04:21:41;;;;;;;81.93;44.40;;;;;;;6.49;100.00;102099.34;6265603;22;20006;-87
2023/04/08 04:24:07;;;;;;;86.65;45.35;;;;;;;6.49;100.00;102104.66;6261610;22;20004;-87
2023/04/08 04:26:41;;;;;;;90.95;47.97;;;;;;;6.52;100.00;102098.44;6245477;23;20000;-87
2023/04/08 04:29:06;;;;;;;90.43;47.00;;;;;;;6.52;100.00;102109.03;6246031;23;20008;-87
2023/04/08 04:31:32;;;;;;;94.88;47.85;;;;;;;6.55;100.00;102113.38;6247271;23;20036;-88
2023/04/08 04:33:57;;;;;;;98.47;46.55;;;;;;;6.49;100.00;102107.28;6248856;23;20204;-88
2023/04/08 04:36:22;;;;;;;96.45;47.22;;;;;;;6.50;100.00;102113.44;6246314;23;20085;-87
2023/04/08 04:38:49;;;;;;;96.85;47.33;;;;;;;6.51;100.00;102119.59;6217462;23;20020;-89
2023/04/08 04:41:14;;;;;;;84.20;45.97;;;;;;;6.55;100.00;102118.69;6241578;23;20000;-87
2023/04/08 04:43:40;;;;;;;105.03;48.75;;;;;;;6.51;100.00;102120.47;6239814;23;20012;-88
2023/04/08 04:46:07;;;;;;;102.03;48.10;;;;;;;6.52;100.00;102124.91;6244040;23;20083;-87
2023/04/08 04:48:35;;;;;;;101.15;48.10;;;;;;;6.39;100.00;102100.34;6254871;22;20068;-86
2023/04/08 04:51:06;;;;;;;100.90;49.35;;;;;;;6.45;100.00;102116.16;6256985;23;20033;-86
2023/04/08 04:53:31;;;;;;;105.28;48.42;;;;;;;6.48;100.00;102124.06;6248853;23;20000;-87
2023/04/08 04:55:56;;;;;;;111.65;51.42;;;;;;;6.50;100.00;102134.63;6239595;23;20471;-86
2023/04/08 04:58:22;;;;;;;107.25;51.65;;;;;;;6.51;100.00;102132.84;6236776;23;20011;-87
2023/04/08 05:00:47;;;;;;;115.00;53.75;;;;;;;6.49;100.00;102133.75;6239178;23;20668;-87
2023/04/08 05:03:12;;;;;;;128.57;54.03;;;;;;;6.46;100.00;102131.13;6213991;23;20023;-87
2023/04/08 05:05:38;;;;;;;118.50;53.05;;;;;;;6.48;100.00;102139.06;6239683;23;20427;-88
2023/04/08 05:08:04;;;;;;;120.72;53.83;;;;;;;6.48;100.00;102142.56;6240257;23;20414;-85
2023/04/08 05:10:29;;;;;;;126.85;54.67;;;;;;;6.51;100.00;102143.41;6216598;23;20031;-88
2023/04/08 05:12:54;;;;;;;117.70;52.47;;;;;;;6.49;100.00;102154.91;6243509;23;20028;-87
2023/04/08 05:15:20;;;;;;;123.72;54.80;;;;;;;6.53;100.00;102152.22;6242277;23;20004;-87
2023/04/08 05:17:45;;;;;;;123.95;54.08;;;;;;;6.52;100.00;102153.09;6246753;23;20026;-86
2023/04/08 05:20:11;;;;;;;111.05;51.75;;;;;;;6.51;100.00;102151.34;6248244;23;20377;-87
2023/04/08 05:22:36;;;;;;;112.65;50.63;;;;;;;6.49;100.00;102154.03;6241464;23;20414;-87
2023/04/08 05:25:01;;;;;;;104.38;50.67;;;;;;;6.49;100.00;102149.63;6239170;23;20035;-86
2023/04/08 05:27:27;;;;;;;107.63;50.25;;;;;;;6.52;100.00;102155.75;6238072;23;20035;-87
2023/04/08 05:29:53;;;;;;;100.18;49.50;;;;;;;6.51;100.00;102159.28;6239427;23;20007;-85
2023/04/08 05:32:18;;;;;;;94.68;48.35;;;;;;;6.49;100.00;102159.31;6242842;23;20520;-86
2023/04/08 05:34:43;;;;;;;99.22;49.72;;;;;;;6.44;100.00;102151.44;6244657;23;20011;-87
2023/04/08 05:37:10;;;;;;;90.45;46.08;;;;;;;6.39;100.00;102157.66;6240897;23;20035;-86
2023/04/08 05:39:35;;;;;;;91.50;47.75;;;;;;;6.35;100.00;102161.25;6237226;23;20058;-86
2023/04/08 05:42:01;;;;;;;99.90;48.40;;;;;;;6.31;100.00;102163.06;6237679;23;20058;-87
2023/04/08 05:44:26;;;;;;;95.32;47.83;;;;;;;6.29;100.00;102156.91;6237850;23;20008;-88
2023/04/08 05:46:52;;;;;;;97.55;48.30;;;;;;;6.34;100.00;102165.66;6237530;23;20414;-87
2023/04/08 05:49:17;;;;;;;96.90;48.60;;;;;;;6.38;100.00;102164.72;6236650;22;20027;-87
2023/04/08 05:51:43;;;;;;;104.03;48.92;;;;;;;6.43;100.00;102165.53;6237795;23;20019;-87
2023/04/08 05:54:08;;;;;;;92.22;46.63;;;;;;;6.43;100.00;102164.66;6211416;23;20430;-88
2023/04/08 05:56:33;;;;;;;83.65;45.60;;;;;;;6.44;100.00;102171.72;6237317;23;20003;-86
2023/04/08 05:58:59;;;;;;;84.85;45.08;;;;;;;6.50;100.00;102176.94;6237075;23;20008;-88
2023/04/08 06:01:25;;;;;;;83.55;43.65;;;;;;;6.49;100.00;102176.06;6235624;23;20004;-87
2023/04/08 06:03:51;;;;;;;77.53;42.42;;;;;;;6.55;100.00;102180.38;6238818;23;20015;-88
2023/04/08 06:06:17;;;;;;;76.43;40.90;;;;;;;6.60;100.00;102180.31;6238643;23;20010;-88
2023/04/08 06:08:42;;;;;;;66.93;38.95;;;;;;;6.58;100.00;102175.06;6238112;23;20079;-88
2023/04/08 06:11:07;;;;;;;69.18;39.33;;;;;;;6.58;100.00;102177.72;6239804;23;20034;-87
2023/04/08 06:13:33;;;;;;;61.30;37.95;;;;;;;6.56;100.00;102191.84;6212637;23;20032;-87
2023/04/08 06:16:09;;;;;;;63.35;37.20;;;;;;;6.57;100.00;102198.91;6214528;23;20038;-87
2023/04/08 06:18:34;;;;;;;64.03;36.38;;;;;;;6.63;100.00;102190.88;6241321;23;20008;-86
2023/04/08 06:20:59;;;;;;;55.63;35.08;;;;;;;6.77;100.00;102202.13;6239239;23;20075;-88
2023/04/08 06:23:25;;;;;;;55.05;33.15;;;;;;;6.78;100.00;102193.34;6259917;22;20051;-87
2023/04/08 06:25:52;;;;;;;46.33;29.83;;;;;;;6.88;100.00;102200.22;6265742;22;19992;-87
2023/04/08 06:28:17;;;;;;;47.15;30.25;;;;;;;6.91;100.00;102207.28;6239170;22;20000;-87
2023/04/08 06:30:43;;;;;;;37.47;25.13;;;;;;;6.95;100.00;102209.84;6264874;22;20008;-86
2023/04/08 06:33:08;;;;;;;36.85;26.15;;;;;;;6.99;100.00;102219.50;6265029;22;20014;-87
2023/04/08 06:35:33;;;;;;;38.17;26.08;;;;;;;7.07;100.00;102216.75;6257274;23;20015;-87
2023/04/08 06:37:59;;;;;;;33.35;25.38;;;;;;;6.96;100.00;102213.38;6240787;23;20016;-88
2023/04/08 06:40:24;;;;;;;34.17;24.27;;;;;;;7.06;100.00;102232.63;6242054;23;20003;-88
2023/04/08 06:42:49;;;;;;;35.38;24.33;;;;;;;7.08;100.00;102228.22;6242783;23;20004;-87
2023/04/08 06:45:15;;;;;;;33.10;23.80;;;;;;;7.13;100.00;102223.72;6241573;23;20531;-86
2023/04/08 06:47:40;;;;;;;32.40;24.17;;;;;;;7.16;100.00;102227.19;6212574;22;20048;-86
2023/04/08 06:50:06;;;;;;;32.65;24.60;;;;;;;7.28;100.00;102231.44;6239493;23;20004;-87
2023/04/08 06:52:31;;;;;;;32.33;23.88;;;;;;;7.27;100.00;102223.50;6241378;23;20000;-87
2023/04/08 06:54:56;;;;;;;32.15;23.70;;;;;;;7.36;100.00;102233.97;6237634;23;20004;-87
2023/04/08 06:57:22;;;;;;;36.38;25.60;;;;;;;7.42;100.00;102234.75;6237112;23;20099;-88
2023/04/08 06:59:47;;;;;;;33.05;24.58;;;;;;;7.46;100.00;102244.41;6237230;23;20058;-86
2023/04/08 07:02:12;;;;;;;35.28;25.50;;;;;;;7.48;100.00;102239.97;6243301;23;20418;-87
2023/04/08 07:04:38;;;;;;;34.95;24.65;;;;;;;7.56;100.00;102241.59;6243837;23;20004;-87
2023/04/08 07:07:03;;;;;;;32.03;24.75;;;;;;;7.65;100.00;102246.72;6218127;23;20012;-85
2023/04/08 07:09:28;;;;;;;28.85;23.70;;;;;;;7.67;100.00;102252.91;6244756;23;20421;-87
2023/04/08 07:11:54;;;;;;;27.83;22.73;;;;;;;7.69;100.00;102256.38;6211271;23;20034;-87
2023/04/08 07:14:20;;;;;;;32.13;24.60;;;;;;;7.69;100.00;102248.44;6238493;23;20004;-87
2023/04/08 07:16:45;;;;;;;29.95;22.60;;;;;;;7.78;100.00;102264.22;6237861;23;20000;-87
2023/04/08 07:19:10;;;;;;;32.67;23.67;;;;;;;7.92;100.00;102266.63;6236862;23;20007;-88
2023/04/08 07:21:36;;;;;;;30.38;22.65;;;;;;;8.13;100.00;102260.94;6237580;23;20000;-86
2023/04/08 07:24:01;;;;;;;31.15;23.25;;;;;;;8.33;100.00;102254.41;6237705;23;20000;-87
2023/04/08 07:26:27;;;;;;;32.78;24.85;;;;;;;8.63;100.00;102269.75;6236791;23;20007;-87
2023/04/08 07:28:52;;;;;;;28.35;22.83;;;;;;;8.65;100.00;102264.41;6235892;23;20066;-87
2023/04/08 07:31:18;;;;;;;27.77;22.50;;;;;;;8.71;100.00;102274.91;6237366;23;20008;-88
2023/04/08 07:33:44;;;;;;;27.75;21.73;;;;;;;8.57;100.00;102276.94;6237467;23;20034;-89
2023/04/08 07:36:10;;;;;;;27.25;23.10;;;;;;;8.55;100.00;102273.47;6236781;23;20279;-86
2023/04/08 07:38:36;;;;;;;28.92;23.05;;;;;;;8.59;100.00;102280.47;6238449;23;20011;-87
2023/04/08 07:41:02;;;;;;;26.10;22.65;;;;;;;8.65;100.00;102280.31;6246132;23;20421;-88
2023/04/08 07:43:27;;;;;;;28.10;22.85;;;;;;;8.69;100.00;102279.34;6245666;23;20019;-87
2023/04/08 07:45:52;;;;;;;32.60;24.02;;;;;;;8.70;100.00;102279.34;6218725;23;20030;-86
2023/04/08 07:48:18;;;;;;;31.45;24.85;;;;;;;8.60;100.00;102280.41;6235827;22;20199;-87
2023/04/08 07:50:44;;;;;;;31.48;26.00;;;;;;;8.59;100.00;102283.13;6236387;23;20086;-87
2023/04/08 07:53:10;;;;;;;31.05;24.95;;;;;;;8.51;100.00;102271.78;6235790;23;20011;-88
2023/04/08 07:55:35;;;;;;;28.20;23.73;;;;;;;8.57;100.00;102293.78;6236707;23;20004;-88
2023/04/08 07:58:01;;;;;;;30.58;25.02;;;;;;;8.62;100.00;102291.88;6234311;23;20011;-87
2023/04/08 08:00:29;;;;;;;31.85;25.42;;;;;;;8.74;100.00;102293.44;6209253;23;20375;-87
2023/04/08 08:02:54;;;;;;;31.27;24.92;;;;;;;8.78;100.00;102289.81;6236191;23;20350;-87
2023/04/08 08:05:20;;;;;;;32.13;25.98;;;;;;;8.75;100.00;102297.84;6236639;23;20008;-87
2023/04/08 08:07:45;;;;;;;34.03;27.23;;;;;;;8.66;100.00;102296.25;6235360;23;20031;-87
2023/04/08 08:10:10;;;;;;;32.22;26.73;;;;;;;8.62;100.00;102298.97;6236336;23;20069;-88
2023/04/08 08:12:36;;;;;;;34.38;27.25;;;;;;;8.60;100.00;102299.00;6236105;23;20004;-87
2023/04/08 08:15:02;;;;;;;33.08;27.85;;;;;;;8.53;100.00;102301.78;6237077;23;20000;-86
2023/04/08 08:17:29;;;;;;;34.10;27.55;;;;;;;8.52;100.00;102313.31;6236228;23;20040;-88
2023/04/08 08:19:55;;;;;;;35.55;28.20;;;;;;;8.56;100.00;102309.69;6239255;23;20075;-87
2023/04/08 08:22:20;;;;;;;33.67;28.10;;;;;;;8.61;100.00;102308.72;6237030;23;20047;-87
2023/04/08 08:24:46;;;;;;;34.30;28.60;;;;;;;8.64;100.00;102303.34;6237257;23;20015;-87
2023/04/08 08:27:12;;;;;;;32.00;26.92;;;;;;;8.66;100.00;102317.47;6235465;23;20015;-88
2023/04/08 08:29:37;;;;;;;32.50;25.88;;;;;;;8.72;100.00;102317.34;6236239;23;20008;-87
2023/04/08 08:32:03;;;;;;;32.55;27.13;;;;;;;8.82;100.00;102323.38;6236474;23;20390;-87
2023/04/08 08:34:28;;;;;;;30.63;25.83;;;;;;;8.78;100.00;102318.13;6235685;23;20004;-88
2023/04/08 08:36:54;;;;;;;33.75;27.52;;;;;;;8.86;100.00;102318.84;6252671;22;20070;-87
2023/04/08 08:39:20;;;;;;;32.35;26.58;;;;;;;8.87;100.00;102328.56;6263790;22;20062;-86
2023/04/08 08:41:45;;;;;;;31.42;26.42;;;;;;;8.86;100.00;102325.06;6264115;22;19992;-86
2023/04/08 08:44:12;;;;;;;32.97;28.00;;;;;;;8.93;100.00;102326.66;6264259;22;20000;-86
2023/04/08 08:46:43;;;;;;;33.38;27.52;;;;;;;9.06;100.00;102334.38;6235476;23;20007;-87
2023/04/08 08:49:08;;;;;;;33.38;26.80;;;;;;;9.06;100.00;102334.38;6235962;23;20606;-86
2023/04/08 08:51:34;;;;;;;32.25;26.02;;;;;;;9.03;100.00;102337.97;6252607;23;20000;-87
2023/04/08 08:54:07;;;;;;;31.10;26.80;;;;;;;9.00;100.00;102342.47;6239474;23;20330;-87
2023/04/08 08:56:33;;;;;;;33.00;27.52;;;;;;;8.93;100.00;102337.28;6214076;23;20264;-88
2023/04/08 08:58:58;;;;;;;32.78;26.98;;;;;;;8.94;100.00;102330.19;6241135;23;20004;-87
2023/04/08 09:01:34;;;;;;;32.45;26.45;;;;;;;9.06;100.00;102342.34;6241000;23;20000;-86
2023/04/08 09:04:14;;;;;;;30.77;26.20;;;;;;;9.15;100.00;102348.31;6240163;23;20003;-86
2023/04/08 09:06:39;;;;;;;32.33;26.80;;;;;;;9.23;100.00;102343.72;6239786;23;19999;-86
2023/04/08 09:09:09;;;;;;;34.97;26.15;;;;;;;9.19;100.00;102351.78;6215413;23;20385;-86
2023/04/08 09:11:34;;;;;;;32.28;26.48;;;;;;;9.11;100.00;102356.38;6239259;23;20004;-85
2023/04/08 09:14:00;;;;;;;31.70;26.48;;;;;;;8.97;100.00;102354.91;6241158;23;20413;-85
2023/04/08 09:16:26;;;;;;;30.25;25.00;;;;;;;9.00;100.00;102361.06;6240663;23;20004;-86
2023/04/08 09:18:51;;;;;;;27.27;24.13;;;;;;;9.05;100.00;102364.50;6240474;23;20019;-86
2023/04/08 09:21:17;;;;;;;28.02;23.83;;;;;;;9.12;100.00;102360.81;6213666;23;20000;-85
2023/04/08 09:23:44;;;;;;;27.30;23.30;;;;;;;9.11;100.00;102365.25;6238658;23;20095;-85
2023/04/08 09:26:15;;;;;;;27.17;22.75;;;;;;;9.14;100.00;102362.53;6236661;23;20004;-87
2023/04/08 09:28:42;;;;;;;26.77;23.25;;;;;;;9.08;100.00;102365.31;6239181;23;20491;-87
2023/04/08 09:31:19;;;;;;;27.85;23.45;;;;;;;9.33;100.00;102363.03;6237495;23;20023;-87
2023/04/08 09:33:46;;;;;;;27.40;22.52;;;;;;;9.47;100.00;102362.72;6236971;23;20012;-87
2023/04/08 09:36:11;;;;;;;27.30;23.23;;;;;;;9.65;100.00;102378.25;6238668;23;20079;-86
2023/04/08 09:38:37;;;;;;;27.00;22.83;;;;;;;9.73;100.00;102360.34;6238808;23;20602;-86
2023/04/08 09:41:06;;;;;;;27.05;23.08;;;;;;;9.85;98.17;102376.91;6238247;23;20372;-87
2023/04/08 09:43:41;;;;;;;25.73;22.15;;;;;;;9.84;97.52;102373.38;6209071;23;20066;-85
2023/04/08 09:46:10;;;;;;;27.17;22.30;;;;;;;9.82;97.77;102375.19;6238328;23;20522;-86
2023/04/08 09:48:40;;;;;;;26.58;23.48;;;;;;;9.73;99.71;102378.06;6236753;22;20020;-86
2023/04/08 09:51:07;;;;;;;26.55;22.92;;;;;;;9.87;99.36;102378.66;6236600;23;20000;-87
2023/04/08 09:53:45;;;;;;;27.85;23.88;;;;;;;9.82;99.62;102375.19;6234585;23;20004;-87
2023/04/08 09:56:12;;;;;;;28.20;24.55;;;;;;;9.89;100.00;102371.50;6237333;23;20007;-86
2023/04/08 09:58:45;;;;;;;27.27;23.85;;;;;;;10.01;98.89;102370.31;6235634;23;20004;-87
2023/04/08 10:01:13;;;;;;;27.17;23.58;;;;;;;10.05;97.44;102385.31;6237612;23;20425;-87
2023/04/08 10:03:52;;;;;;;23.85;21.35;;;;;;;10.02;95.15;102387.16;6236663;23;20012;-86
2023/04/08 10:06:20;;;;;;;23.75;21.15;;;;;;;10.27;94.56;102379.47;6238624;23;20516;-86
2023/04/08 10:08:46;;;;;;;25.40;21.80;;;;;;;10.26;93.76;102381.28;6236677;23;20004;-85
2023/04/08 10:11:14;;;;;;;32.58;23.80;;;;;;;10.42;94.02;102387.09;6239055;23;20007;-87
2023/04/08 10:13:39;;;;;;;24.90;22.20;;;;;;;10.34;92.82;102391.72;6239973;23;20015;-86
2023/04/08 10:16:24;;;;;;;25.90;22.73;;;;;;;10.42;95.20;102387.97;6242179;23;20004;-85
2023/04/08 10:18:54;;;;;;;25.75;23.05;;;;;;;10.36;92.04;102385.44;6244461;23;20625;-85
2023/04/08 10:21:42;;;;;;;26.85;23.08;;;;;;;10.59;93.32;102387.53;6240178;23;20018;-87
2023/04/08 10:24:10;;;;;;;25.73;22.73;;;;;;;11.28;91.67;102374.06;6237569;23;20178;-87
2023/04/08 10:26:40;;;;;;;27.23;23.40;;;;;;;11.60;89.24;102381.09;6238448;23;19996;-86
2023/04/08 10:29:17;;;;;;;26.40;23.20;;;;;;;11.75;89.76;102377.97;6239040;23;20015;-86
2023/04/08 10:31:44;;;;;;;24.73;21.55;;;;;;;13.36;89.25;102370.63;6236110;23;20561;-87
2023/04/08 10:34:16;;;;;;;23.85;20.92;;;;;;;14.92;75.59;102374.00;6238333;23;20008;-86
2023/04/08 10:36:43;;;;;;;23.80;21.27;;;;;;;14.90;69.99;102376.75;6237125;23;20434;-86
2023/04/08 10:39:08;;;;;;;24.30;21.77;;;;;;;15.30;69.55;102371.38;6235663;23;20019;-86
2023/04/08 10:41:34;;;;;;;23.20;20.80;;;;;;;16.82;65.38;102360.28;6235719;23;20373;-84
2023/04/08 10:44:02;;;;;;;22.98;20.67;;;;;;;17.02;61.86;102363.75;6236367;23;20354;-87
2023/04/08 10:46:28;;;;;;;22.25;20.02;;;;;;;16.13;64.36;102363.78;6236679;23;20275;-86
2023/04/08 10:49:02;;;;;;;22.60;20.38;;;;;;;15.20;68.31;102362.91;6237224;22;20016;-87
2023/04/08 10:51:31;;;;;;;22.70;20.40;;;;;;;16.00;67.46;102354.63;6236657;23;20000;-88
2023/04/08 10:54:06;;;;;;;22.52;20.33;;;;;;;17.52;63.23;102346.63;6237342;23;20004;-87
2023/04/08 10:56:32;;;;;;;22.48;20.15;;;;;;;17.40;60.18;102343.66;6239583;23;20465;-88
2023/04/08 10:58:58;;;;;;;21.83;19.58;;;;;;;16.89;61.40;102363.53;6239486;23;20015;-88
2023/04/08 11:01:24;;;;;;;22.80;20.40;;;;;;;16.21;63.03;102355.34;6251154;22;20008;-87
2023/04/08 11:03:50;;;;;;;23.20;20.90;;;;;;;16.04;64.05;102355.34;6264009;22;20034;-86
2023/04/08 11:06:16;;;;;;;22.88;20.52;;;;;;;17.64;58.62;102343.22;6238061;23;20008;-87
2023/04/08 11:08:43;;;;;;;21.38;19.15;;;;;;;19.74;51.88;102347.53;6262399;22;20048;-86